createdAt,value
2018-04-10T00:02:29.759Z,35.10
2018-04-10T00:04:58.831Z,36.43
2018-04-10T00:07:28.672Z,38.80
2018-04-10T00:09:58.520Z,35.93
2018-04-10T00:12:27.611Z,36.17
2018-04-10T00:14:57.483Z,34.30
2018-04-10T00:17:26.559Z,40.20
2018-04-10T00:19:55.635Z,34.77
2018-04-10T00:22:24.744Z,38.00
2018-04-10T00:24:53.815Z,34.90
2018-04-10T00:27:22.977Z,34.80
2018-04-10T00:29:52.828Z,41.30
2018-04-10T00:32:21.962Z,39.20
2018-04-10T00:34:51.044Z,44.00
2018-04-10T00:37:20.123Z,49.83
2018-04-10T00:39:49.203Z,40.43
2018-04-10T00:42:18.339Z,40.60
2018-04-10T00:44:47.423Z,40.77
2018-04-10T00:47:16.507Z,42.87
2018-04-10T00:49:45.584Z,44.57
2018-04-10T00:52:15.435Z,44.03
2018-04-10T00:54:44.511Z,45.93
2018-04-10T00:57:13.583Z,39.63
2018-04-10T00:59:42.659Z,40.80
2018-04-10T01:02:11.744Z,46.80
2018-04-10T01:04:40.822Z,44.37
2018-04-10T01:07:10.108Z,48.87
2018-04-10T01:09:39.218Z,44.60
2018-04-10T01:12:08.327Z,48.63
2018-04-10T01:14:37.403Z,46.07
2018-04-10T01:17:07.248Z,47.97
2018-04-10T01:19:37.131Z,47.93
2018-04-10T01:22:06.975Z,45.43
2018-04-10T01:24:36.675Z,46.13
2018-04-10T01:27:05.747Z,39.90
2018-04-10T01:29:34.856Z,48.57
2018-04-10T01:32:04.004Z,47.60
2018-04-10T01:34:33.085Z,54.93
2018-04-10T01:37:02.191Z,46.27
2018-04-10T01:39:31.356Z,48.50
2018-04-10T01:42:00.442Z,44.17
2018-04-10T01:44:29.584Z,43.40
2018-04-10T01:46:58.663Z,48.47
2018-04-10T01:49:27.741Z,47.97
2018-04-10T01:51:56.825Z,52.47
2018-04-10T01:54:25.907Z,50.77
2018-04-10T01:56:55.011Z,51.37
2018-04-10T01:59:24.097Z,51.05
2018-04-10T02:01:53.173Z,47.90
2018-04-10T02:04:22.649Z,47.40
2018-04-10T02:06:52.559Z,50.00
2018-04-10T02:09:21.640Z,50.77
2018-04-10T02:11:51.488Z,52.87
2018-04-10T02:14:20.563Z,59.33
2018-04-10T02:16:49.644Z,59.13
2018-04-10T02:19:18.724Z,49.70
2018-04-10T02:21:47.832Z,54.13
2018-04-10T02:24:16.939Z,55.27
2018-04-10T02:26:46.095Z,55.60
2018-04-10T02:29:15.178Z,52.87
2018-04-10T02:31:44.264Z,63.57
2018-04-10T02:34:13.344Z,58.20
2018-04-10T02:36:42.416Z,54.97
2018-04-10T02:39:11.522Z,60.37
2018-04-10T02:41:40.605Z,56.10
2018-04-10T02:44:09.847Z,54.03
2018-04-10T02:46:38.919Z,55.97
2018-04-10T02:49:08.359Z,51.20
2018-04-10T02:51:37.449Z,59.08
2018-04-10T02:54:06.540Z,61.50
2018-04-10T02:56:36.381Z,54.00
2018-04-10T02:59:06.221Z,50.03
2018-04-10T03:01:35.305Z,57.40
2018-04-10T03:04:05.159Z,57.17
2018-04-10T03:06:34.271Z,51.60
2018-04-10T03:09:04.116Z,50.60
2018-04-10T03:11:33.255Z,52.42
2018-04-10T03:14:02.329Z,59.50
2018-04-10T03:16:31.439Z,59.35
2018-04-10T03:19:00.559Z,57.67
2018-04-10T03:21:29.663Z,60.27
2018-04-10T03:23:58.740Z,64.80
2018-04-10T03:26:28.591Z,62.05
2018-04-10T03:28:57.668Z,61.73
2018-04-10T03:31:27.521Z,62.70
2018-04-10T03:33:56.607Z,54.13
2018-04-10T03:36:26.516Z,61.90
2018-04-10T03:38:55.604Z,64.33
2018-04-10T03:41:24.690Z,70.12
2018-04-10T03:43:53.813Z,61.47
2018-04-10T03:46:22.896Z,63.22
2018-04-10T03:48:51.985Z,69.75
2018-04-10T03:51:21.847Z,73.40
2018-04-10T03:53:52.034Z,66.60
2018-04-10T03:56:21.123Z,64.28
2018-04-10T03:58:50.208Z,62.25
2018-04-10T04:01:19.291Z,68.10
2018-04-10T04:03:49.143Z,67.05
2018-04-10T04:06:18.225Z,65.40
2018-04-10T04:08:48.080Z,62.60
2018-04-10T04:11:17.240Z,69.47
2018-04-10T04:13:46.329Z,68.80
2018-04-10T04:16:33.164Z,62.33
2018-04-10T04:19:20.770Z,69.25
2018-04-10T04:22:01.884Z,68.22
2018-04-10T04:24:30.999Z,62.95
2018-04-10T04:27:00.084Z,60.40
2018-04-10T04:29:29.167Z,65.80
2018-04-10T04:31:59.016Z,65.85
2018-04-10T04:34:28.112Z,65.85
2018-04-10T04:36:57.959Z,65.90
2018-04-10T04:39:27.044Z,65.55
2018-04-10T04:41:56.894Z,59.88
2018-04-10T04:44:25.984Z,58.60
2018-04-10T04:46:55.835Z,63.90
2018-04-10T04:49:24.962Z,62.70
2018-04-10T04:51:55.221Z,61.80
2018-04-10T04:54:24.312Z,64.85
2018-04-10T04:56:53.396Z,64.78
2018-04-10T04:59:22.480Z,67.22
2018-04-10T05:01:52.328Z,64.72
2018-04-10T05:04:21.418Z,62.58
2018-04-10T05:06:51.272Z,63.67
2018-04-10T05:09:20.356Z,58.17
2018-04-10T05:11:50.204Z,59.33
2018-04-10T05:14:19.292Z,65.22
2018-04-10T05:16:48.371Z,56.17
2018-04-10T05:19:17.460Z,64.18
2018-04-10T05:21:46.549Z,52.83
2018-04-10T05:24:15.636Z,56.03
2018-04-10T05:26:45.491Z,65.20
2018-04-10T05:29:14.576Z,56.67
2018-04-10T05:31:43.688Z,56.23
2018-04-10T05:34:13.544Z,59.70
2018-04-10T05:36:42.629Z,55.07
2018-04-10T05:39:12.478Z,59.53
2018-04-10T05:41:41.547Z,60.10
2018-04-10T05:44:10.661Z,60.87
2018-04-10T05:46:39.822Z,52.60
2018-04-10T05:49:08.970Z,55.20
2018-04-10T05:51:38.088Z,56.37
2018-04-10T05:54:07.164Z,54.53
2018-04-10T05:56:36.258Z,52.03
2018-04-10T05:59:05.380Z,58.80
2018-04-10T06:01:34.456Z,54.37
2018-04-10T06:04:04.305Z,55.47
2018-04-10T06:06:33.384Z,50.50
2018-04-10T06:09:03.227Z,58.63
2018-04-10T06:11:32.308Z,53.90
2018-04-10T06:14:01.384Z,59.17
2018-04-10T06:16:30.583Z,52.30
2018-04-10T06:18:59.691Z,55.47
2018-04-10T06:21:28.768Z,51.50
2018-04-10T06:23:58.613Z,61.60
2018-04-10T06:26:27.956Z,50.80
2018-04-10T06:28:58.008Z,49.97
2018-04-10T06:31:28.764Z,65.60
2018-04-10T06:33:57.852Z,54.67
2018-04-10T06:36:27.000Z,61.57
2018-04-10T06:38:56.071Z,52.40
2018-04-10T06:41:25.144Z,49.40
2018-04-10T06:43:55.012Z,49.33
2018-04-10T06:46:24.091Z,55.67
2018-04-10T06:48:53.244Z,52.60
2018-04-10T06:51:22.377Z,55.90
2018-04-10T06:53:51.456Z,62.03
2018-04-10T06:56:20.568Z,49.73
2018-04-10T06:58:49.644Z,56.73
2018-04-10T07:01:18.732Z,56.90
2018-04-10T07:03:48.580Z,53.37
2018-04-10T07:06:18.418Z,54.33
2018-04-10T07:08:47.721Z,48.73
2018-04-10T07:11:18.079Z,52.70
2018-04-10T07:13:47.157Z,50.27
2018-04-10T07:16:17.036Z,47.27
2018-04-10T07:18:46.107Z,48.20
2018-04-10T07:21:15.948Z,49.03
2018-04-10T07:23:45.019Z,54.17
2018-04-10T07:26:14.163Z,54.37
2018-04-10T07:28:43.248Z,52.20
2018-04-10T07:31:13.096Z,52.57
2018-04-10T07:33:42.211Z,48.83
2018-04-10T07:36:11.292Z,47.00
2018-04-10T07:38:40.372Z,55.47
2018-04-10T07:41:09.487Z,53.07
2018-04-10T07:43:38.600Z,59.43
2018-04-10T07:46:07.764Z,44.50
2018-04-10T07:48:37.601Z,44.63
2018-04-10T07:51:06.675Z,45.87
2018-04-10T07:53:36.521Z,45.23
2018-04-10T07:56:05.609Z,43.47
2018-04-10T07:58:35.489Z,49.83
2018-04-10T08:01:04.572Z,46.20
2018-04-10T08:03:33.656Z,44.50
2018-04-10T08:06:03.505Z,46.10
2018-04-10T08:08:33.377Z,42.73
2018-04-10T08:11:02.540Z,47.37
2018-04-10T08:13:32.384Z,47.77
2018-04-10T08:16:01.464Z,45.83
2018-04-10T08:18:30.544Z,38.97
2018-04-10T08:20:59.637Z,46.77
2018-04-10T08:23:28.716Z,46.40
2018-04-10T08:25:58.571Z,47.23
2018-04-10T08:28:27.717Z,42.97
2018-04-10T08:30:57.804Z,42.53
2018-04-10T08:33:26.886Z,38.60
2018-04-10T08:35:56.735Z,39.70
2018-04-10T08:38:25.830Z,46.57
2018-04-10T08:40:55.676Z,45.50
2018-04-10T08:43:24.831Z,47.53
2018-04-10T08:45:53.907Z,39.67
2018-04-10T08:48:23.076Z,39.40
2018-04-10T08:50:52.368Z,49.70
2018-04-10T08:53:21.439Z,48.73
2018-04-10T08:55:50.508Z,42.27
2018-04-10T08:58:19.584Z,38.53
2018-04-10T09:00:48.664Z,34.17
2018-04-10T09:03:17.740Z,37.70
2018-04-10T09:05:46.819Z,31.93
2018-04-10T09:08:15.936Z,32.73
2018-04-10T09:10:45.017Z,34.47
2018-04-10T09:13:14.124Z,35.20
2018-04-10T09:15:43.204Z,34.80
2018-04-10T09:18:13.108Z,38.13
2018-04-10T09:20:42.183Z,35.93
2018-04-10T09:23:11.272Z,38.97
2018-04-10T09:25:40.380Z,38.20
2018-04-10T09:28:09.466Z,39.87
2018-04-10T09:30:39.335Z,32.33
2018-04-10T09:33:08.409Z,36.17
2018-04-10T09:35:38.301Z,33.77
2018-04-10T09:38:07.385Z,33.37
2018-04-10T09:40:37.723Z,30.10
2018-04-10T09:43:06.796Z,33.90
2018-04-10T09:45:36.634Z,31.27
2018-04-10T09:48:06.542Z,35.00
2018-04-10T09:50:36.389Z,25.63
2018-04-10T09:53:05.485Z,30.50
2018-04-10T09:55:35.353Z,30.77
2018-04-10T09:58:04.544Z,35.33
2018-04-10T10:00:39.940Z,35.00
2018-04-10T10:03:09.048Z,26.20
2018-04-10T10:05:38.120Z,24.20
2018-04-10T10:08:07.249Z,24.37
2018-04-10T10:10:36.323Z,28.10
2018-04-10T10:13:06.172Z,41.73
2018-04-10T10:15:35.272Z,33.10
2018-04-10T10:18:05.111Z,28.53
2018-04-10T10:20:34.993Z,22.47
2018-04-10T10:23:04.067Z,23.90
2018-04-10T10:25:33.143Z,36.47
2018-04-10T10:28:02.983Z,37.83
2018-04-10T10:30:32.829Z,31.23
2018-04-10T10:33:01.960Z,24.37
2018-04-10T10:35:31.053Z,28.93
2018-04-10T10:38:00.192Z,21.53
2018-04-10T10:40:29.272Z,24.93
2018-04-10T10:42:58.351Z,24.70
2018-04-10T10:45:28.272Z,25.20
2018-04-10T10:47:57.354Z,33.90
2018-04-10T10:50:26.425Z,24.10
2018-04-10T10:52:55.503Z,24.13
2018-04-10T10:55:24.623Z,27.87
2018-04-10T10:57:54.472Z,29.23
2018-04-10T11:00:23.555Z,30.37
2018-04-10T11:02:53.416Z,24.90
2018-04-10T11:05:22.568Z,25.43
2018-04-10T11:07:51.664Z,33.37
2018-04-10T11:10:20.768Z,20.50
2018-04-10T11:12:49.899Z,28.53
2018-04-10T11:15:18.980Z,25.97
2018-04-10T11:17:48.060Z,21.43
2018-04-10T11:20:17.908Z,24.00
2018-04-10T11:22:47.060Z,39.23
2018-04-10T11:25:16.138Z,22.93
2018-04-10T11:27:45.216Z,28.40
2018-04-10T11:30:15.063Z,23.60
2018-04-10T11:32:44.147Z,26.37
2018-04-10T11:35:14.040Z,23.83
2018-04-10T11:37:43.120Z,29.90
2018-04-10T11:40:12.191Z,23.80
2018-04-10T11:42:41.303Z,29.77
2018-04-10T11:45:11.143Z,27.40
2018-04-10T11:47:40.223Z,30.23
2018-04-10T11:50:10.839Z,22.00
2018-04-10T11:52:39.919Z,28.70
2018-04-10T11:55:09.108Z,19.53
2018-04-10T11:57:38.952Z,27.73
2018-04-10T12:00:08.066Z,23.87
2018-04-10T12:02:37.900Z,23.97
2018-04-10T12:05:06.977Z,32.60
2018-04-10T12:07:36.051Z,29.97
2018-04-10T12:10:05.123Z,19.97
2018-04-10T12:12:34.200Z,25.53
2018-04-10T12:15:03.321Z,20.53
2018-04-10T12:17:33.155Z,23.40
2018-04-10T12:20:03.003Z,27.80
2018-04-10T12:22:32.086Z,16.00
2018-04-10T12:25:02.000Z,19.60
2018-04-10T12:27:31.076Z,19.70
2018-04-10T12:30:00.198Z,22.57
2018-04-10T12:32:29.280Z,21.23
2018-04-10T12:34:58.360Z,23.03
2018-04-10T12:37:28.260Z,18.47
2018-04-10T12:39:57.337Z,15.87
2018-04-10T12:42:26.508Z,21.73
2018-04-10T12:44:56.349Z,23.10
2018-04-10T12:47:26.196Z,18.57
2018-04-10T12:49:55.313Z,18.60
2018-04-10T12:52:24.388Z,21.97
2018-04-10T12:54:54.219Z,20.63
2018-04-10T12:57:24.160Z,19.50
2018-04-10T12:59:53.235Z,19.63
2018-04-10T13:02:22.482Z,15.73
2018-04-10T13:04:51.608Z,15.07
2018-04-10T13:07:20.694Z,18.00
2018-04-10T13:09:50.535Z,23.70
2018-04-10T13:12:19.763Z,15.40
2018-04-10T13:14:48.847Z,18.23
2018-04-10T13:17:18.688Z,20.73
2018-04-10T13:19:47.765Z,24.40
2018-04-10T13:22:16.864Z,19.17
2018-04-10T13:24:45.931Z,30.50
2018-04-10T13:27:15.112Z,22.43
2018-04-10T13:29:44.216Z,20.57
2018-04-10T13:32:14.064Z,22.90
2018-04-10T13:34:43.149Z,25.13
2018-04-10T13:37:12.264Z,15.37
2018-04-10T13:39:42.104Z,23.87
2018-04-10T13:42:11.952Z,34.17
2018-04-10T13:44:41.035Z,25.20
2018-04-10T13:47:10.883Z,24.50
2018-04-10T13:49:39.958Z,18.70
2018-04-10T13:52:09.071Z,19.30
2018-04-10T13:54:38.920Z,21.37
2018-04-10T13:57:08.767Z,22.47
2018-04-10T13:59:37.907Z,32.17
2018-04-10T14:02:07.012Z,27.53
2018-04-10T14:04:36.143Z,19.93
2018-04-10T14:07:05.211Z,23.33
2018-04-10T14:09:34.302Z,20.23
2018-04-10T14:12:03.515Z,23.60
2018-04-10T14:14:32.596Z,17.57
2018-04-10T14:17:01.704Z,15.73
2018-04-10T14:19:30.812Z,16.40
2018-04-10T14:21:59.926Z,16.70
2018-04-10T14:24:29.004Z,12.40
2018-04-10T14:26:58.076Z,15.10
2018-04-10T14:29:27.919Z,16.50
2018-04-10T14:31:56.990Z,25.70
2018-04-10T14:34:26.071Z,21.60
2018-04-10T14:36:55.160Z,19.20
2018-04-10T14:39:24.292Z,11.57
2018-04-10T14:41:53.359Z,16.77
2018-04-10T14:44:22.735Z,14.37
2018-04-10T14:46:51.812Z,17.13
2018-04-10T14:49:20.891Z,23.27
2018-04-10T14:51:50.744Z,24.33
2018-04-10T14:54:19.819Z,19.73
2018-04-10T14:56:48.929Z,14.37
2018-04-10T14:59:18.821Z,13.27
2018-04-10T15:01:47.887Z,14.63
2018-04-10T15:04:16.960Z,13.67
2018-04-10T15:06:46.063Z,11.23
2018-04-10T15:09:15.135Z,13.10
2018-04-10T15:11:44.210Z,14.50
2018-04-10T15:14:14.166Z,16.90
2018-04-10T15:16:43.297Z,15.73
2018-04-10T15:19:12.376Z,15.80
2018-04-10T15:21:41.450Z,15.33
2018-04-10T15:24:10.536Z,14.17
2018-04-10T15:26:39.676Z,11.63
2018-04-10T15:29:08.751Z,16.43
2018-04-10T15:31:37.856Z,16.73
2018-04-10T15:34:06.923Z,17.63
2018-04-10T15:36:37.204Z,13.60
2018-04-10T15:39:06.315Z,15.10
2018-04-10T15:41:35.387Z,12.23
2018-04-10T15:44:05.217Z,9.00
2018-04-10T15:46:35.052Z,14.20
2018-04-10T15:49:04.121Z,17.40
2018-04-10T15:51:33.211Z,7.70
2018-04-10T15:54:02.375Z,9.33
2018-04-10T15:56:32.199Z,5.63
2018-04-10T15:59:01.308Z,5.60
2018-04-10T16:01:31.135Z,4.30
2018-04-10T16:04:00.968Z,13.33
2018-04-10T16:06:30.064Z,3.97
2018-04-10T16:08:59.898Z,7.40
2018-04-10T16:11:29.728Z,11.97
2018-04-10T16:13:59.736Z,7.10
2018-04-10T16:16:29.643Z,2.67
2018-04-10T16:18:58.711Z,4.97
2018-04-10T16:21:27.790Z,15.13
2018-04-10T16:23:56.919Z,6.27
2018-04-10T16:26:26.752Z,5.17
2018-04-10T16:28:56.584Z,8.53
2018-04-10T16:31:25.660Z,13.73
2018-04-10T16:33:54.727Z,12.57
2018-04-10T16:36:23.824Z,2.80
2018-04-10T16:38:52.896Z,15.40
2018-04-10T16:41:21.964Z,9.60
2018-04-10T16:43:51.076Z,11.40
2018-04-10T16:46:20.149Z,5.80
2018-04-10T16:48:49.979Z,2.90
2018-04-10T16:51:19.064Z,2.83
2018-04-10T16:53:48.133Z,2.87
2018-04-10T16:56:17.207Z,5.60
2018-04-10T16:58:47.052Z,9.23
2018-04-10T17:01:16.162Z,9.07
2018-04-10T17:03:45.232Z,6.40
2018-04-10T17:06:14.397Z,7.27
2018-04-10T17:08:43.508Z,6.83
2018-04-10T17:11:12.571Z,6.00
2018-04-10T17:13:42.652Z,16.97
2018-04-10T17:16:11.731Z,8.23
2018-04-10T17:18:40.809Z,12.07
2018-04-10T17:21:09.896Z,8.57
2018-04-10T17:23:38.961Z,4.30
2018-04-10T17:26:08.036Z,4.23
2018-04-10T17:28:37.104Z,12.37
2018-04-10T17:31:06.207Z,12.07
2018-04-10T17:33:35.335Z,7.83
2018-04-10T17:36:04.403Z,9.40
2018-04-10T17:38:34.356Z,18.30
2018-04-10T17:41:03.426Z,12.30
2018-04-10T17:43:33.268Z,8.63
2018-04-10T17:46:03.401Z,32.17
2018-04-10T17:48:33.253Z,10.63
2018-04-10T17:51:02.403Z,10.50
2018-04-10T17:53:31.481Z,4.70
2018-04-10T17:56:00.669Z,4.07
2018-04-10T17:58:29.766Z,5.10
2018-04-10T18:00:59.610Z,12.67
2018-04-10T18:03:28.695Z,7.30
2018-04-10T18:05:57.823Z,9.53
2018-04-10T18:08:26.912Z,6.10
2018-04-10T18:10:55.988Z,8.40
2018-04-10T18:13:25.123Z,8.43
2018-04-10T18:15:54.261Z,11.40
2018-04-10T18:18:24.147Z,6.67
2018-04-10T18:20:53.236Z,8.20
2018-04-10T18:23:22.326Z,10.50
2018-04-10T18:25:51.424Z,4.77
2018-04-10T18:28:21.263Z,12.70
2018-04-10T18:30:50.404Z,5.33
2018-04-10T18:33:19.527Z,28.17
2018-04-10T18:35:48.611Z,22.80
2018-04-10T18:38:17.692Z,7.13
2018-04-10T18:40:47.630Z,9.53
2018-04-10T18:43:16.732Z,5.10
2018-04-10T18:45:45.812Z,9.73
2018-04-10T18:48:14.884Z,4.63
2018-04-10T18:50:43.955Z,8.47
2018-04-10T18:53:13.788Z,2.63
2018-04-10T18:55:43.620Z,5.73
2018-04-10T18:58:13.903Z,9.43
2018-04-10T19:00:43.304Z,7.90
2018-04-10T19:03:12.383Z,9.63
2018-04-10T19:05:42.441Z,9.80
2018-04-10T19:08:11.585Z,7.77
2018-04-10T19:10:40.669Z,4.20
2018-04-10T19:13:09.813Z,7.27
2018-04-10T19:15:38.893Z,5.50
2018-04-10T19:18:07.977Z,10.77
2018-04-10T19:20:37.092Z,6.10
2018-04-10T19:23:06.283Z,4.57
2018-04-10T19:25:36.126Z,13.00
2018-04-10T19:28:05.208Z,10.33
2018-04-10T19:30:34.360Z,9.40
2018-04-10T19:33:03.446Z,5.93
2018-04-10T19:35:33.291Z,15.73
2018-04-10T19:38:02.376Z,14.40
2018-04-10T19:40:32.276Z,14.10
2018-04-10T19:43:01.351Z,9.50
2018-04-10T19:45:30.441Z,16.70
2018-04-10T19:47:59.525Z,20.50
2018-04-10T19:50:28.621Z,21.23
2018-04-10T19:52:57.700Z,16.07
2018-04-10T19:55:26.895Z,19.63
2018-04-10T19:57:56.007Z,27.77
2018-04-10T20:00:25.097Z,26.83
2018-04-10T20:02:54.979Z,37.47
2018-04-10T20:05:24.107Z,29.57
2018-04-10T20:07:53.238Z,31.93
2018-04-10T20:10:23.096Z,30.30
2018-04-10T20:12:52.175Z,30.30
2018-04-10T20:15:21.366Z,25.60
2018-04-10T20:17:50.452Z,33.60
2018-04-10T20:20:19.540Z,33.30
2018-04-10T20:22:48.687Z,31.60
2018-04-10T20:25:17.783Z,35.47
2018-04-10T20:27:46.877Z,27.33
2018-04-10T20:30:15.967Z,33.23
2018-04-10T20:32:45.058Z,33.30
2018-04-10T20:35:14.959Z,47.57
2018-04-10T20:37:44.048Z,35.37
2018-04-10T20:40:13.142Z,29.57
2018-04-10T20:42:42.227Z,30.13
2018-04-10T20:45:12.115Z,27.20
2018-04-10T20:47:42.871Z,34.43
2018-04-10T20:50:11.955Z,27.90
2018-04-10T20:52:41.041Z,31.10
2018-04-10T20:55:10.129Z,29.90
2018-04-10T20:57:40.036Z,35.30
2018-04-10T21:00:09.215Z,32.93
2018-04-10T21:02:38.353Z,31.00
2018-04-10T21:05:07.466Z,26.37
2018-04-10T21:07:36.588Z,39.17
2018-04-10T21:10:05.673Z,29.93
2018-04-10T21:12:34.784Z,31.33
2018-04-10T21:15:03.870Z,21.80
2018-04-10T21:17:32.952Z,35.67
2018-04-10T21:20:02.832Z,24.00
2018-04-10T21:22:32.684Z,29.43
2018-04-10T21:25:01.805Z,29.03
2018-04-10T21:27:31.664Z,27.70
2018-04-10T21:30:00.748Z,30.37
2018-04-10T21:32:30.655Z,31.70
2018-04-10T21:34:59.736Z,28.83
2018-04-10T21:37:28.836Z,32.50
2018-04-10T21:39:57.987Z,28.60
2018-04-10T21:42:27.106Z,36.80
2018-04-10T21:44:56.191Z,24.83
2018-04-10T21:47:25.275Z,28.90
2018-04-10T21:49:54.360Z,34.20
2018-04-10T21:52:24.220Z,38.83
2018-04-10T21:54:53.308Z,35.50
2018-04-10T21:57:22.446Z,31.73
2018-04-10T21:59:51.547Z,32.93
2018-04-10T22:02:20.632Z,35.07
2018-04-10T22:04:50.595Z,29.03
2018-04-10T22:07:19.676Z,35.63
2018-04-10T22:09:48.755Z,36.30
2018-04-10T22:12:17.843Z,34.53
2018-04-10T22:14:46.928Z,32.67
2018-04-10T22:17:16.340Z,36.97
2018-04-10T22:19:45.431Z,51.73
2018-04-10T22:22:15.300Z,37.20
2018-04-10T22:24:44.388Z,34.40
2018-04-10T22:27:13.543Z,35.93
2018-04-10T22:29:42.633Z,35.70
2018-04-10T22:32:11.720Z,38.17
2018-04-10T22:34:40.778Z,34.67
2018-04-10T22:37:09.898Z,30.50
2018-04-10T22:39:38.982Z,49.03
2018-04-10T22:42:08.832Z,31.57
2018-04-10T22:44:37.955Z,31.37
2018-04-10T22:47:07.044Z,41.43
2018-04-10T22:49:36.952Z,38.17
2018-04-10T22:52:06.037Z,30.93
2018-04-10T22:54:38.068Z,39.17
2018-04-10T22:57:07.197Z,42.60
2018-04-10T22:59:36.286Z,30.70
2018-04-10T23:02:05.392Z,38.33
2018-04-10T23:16:36.820Z,30.97
2018-04-10T23:19:06.680Z,28.47
2018-04-10T23:21:35.801Z,32.60
2018-04-10T23:24:04.942Z,30.20
2018-04-10T23:26:34.036Z,32.57
2018-04-10T23:29:03.133Z,39.40
2018-04-10T23:31:32.217Z,24.50
2018-04-10T23:34:02.080Z,27.50
2018-04-10T23:36:31.206Z,30.70
2018-04-10T23:39:00.303Z,30.13
2018-04-10T23:41:29.388Z,28.87
2018-04-10T23:43:59.239Z,31.20
2018-04-10T23:46:28.319Z,26.93
2018-04-10T23:48:58.236Z,23.70
2018-04-10T23:51:28.832Z,25.87
2018-04-10T23:53:57.925Z,25.30
2018-04-10T23:56:27.044Z,23.10
2018-04-10T23:58:56.169Z,30.60
